Denver, Colorado
Current Conditions -  °F | °C
As of 4:58 AM on Thursday 29 Jan 2015 (Local Time) from KBKF Reporting Station
Overcast Overcast  
Wind Chill: 30°   Ceiling: 4800
Heat Index: 35°   Visibility: 10mi
Dew Point: 29°   Wind: 6mph
Humidity: 78%   Direction: 320°NW
Pressure: 30.44"   Gusts: NA
Location:  39.74°N, 104.99°W
Report Text: KBKF 291158Z 32005KT 10SM OVC048 02/M02 A3044 RMK AO2A SLP291 T00181016 10026 20005 52010
Loading
Personal Weather Stations






























Interactive Weather Map New forecast layout! Learn more

10-Day Weather Forecast

Advertisements
Track Severe Weather on mobile